sensor_id;sensor_type;location;lat;lon;timestamp;pressure;altitude;pressure_sealevel;temperature;humidity
32492;BME280;20605;49.742;18.802;2022-12-18T00:01:21;99204.23;;;-3.23;100.00
32492;BME280;20605;49.742;18.802;2022-12-18T00:03:50;99204.77;;;-3.21;100.00
32492;BME280;20605;49.742;18.802;2022-12-18T00:06:19;99204.58;;;-3.16;100.00
32492;BME280;20605;49.742;18.802;2022-12-18T00:08:46;99207.66;;;-3.13;100.00
32492;BME280;20605;49.742;18.802;2022-12-18T00:11:16;99208.00;;;-3.15;100.00
32492;BME280;20605;49.742;18.802;2022-12-18T00:13:43;99208.59;;;-3.21;100.00
32492;BME280;20605;49.742;18.802;2022-12-18T00:16:13;99215.23;;;-3.15;100.00
32492;BME280;20605;49.742;18.802;2022-12-18T00:18:42;99216.72;;;-3.10;100.00
32492;BME280;20605;49.742;18.802;2022-12-18T00:21:10;99218.94;;;-3.08;100.00
32492;BME280;20605;49.742;18.802;2022-12-18T00:23:39;99221.48;;;-3.08;100.00
32492;BME280;20605;49.742;18.802;2022-12-18T00:26:13;99229.93;;;-3.09;100.00
32492;BME280;20605;49.742;18.802;2022-12-18T00:28:43;99231.80;;;-3.15;100.00
32492;BME280;20605;49.742;18.802;2022-12-18T00:31:20;99229.25;;;-3.15;100.00
32492;BME280;20605;49.742;18.802;2022-12-18T00:33:44;99229.32;;;-3.13;100.00
32492;BME280;20605;49.742;18.802;2022-12-18T00:36:14;99232.02;;;-3.10;100.00
32492;BME280;20605;49.742;18.802;2022-12-18T00:38:43;99237.70;;;-3.16;100.00
32492;BME280;20605;49.742;18.802;2022-12-18T00:41:12;99239.83;;;-3.25;100.00
32492;BME280;20605;49.742;18.802;2022-12-18T00:43:40;99242.41;;;-3.43;100.00
32492;BME280;20605;49.742;18.802;2022-12-18T00:46:07;99245.47;;;-3.50;100.00
32492;BME280;20605;49.742;18.802;2022-12-18T00:48:33;99249.81;;;-3.57;100.00
32492;BME280;20605;49.742;18.802;2022-12-18T00:51:00;99249.45;;;-3.65;100.00
32492;BME280;20605;49.742;18.802;2022-12-18T00:53:27;99249.08;;;-3.72;100.00
32492;BME280;20605;49.742;18.802;2022-12-18T00:55:55;99252.69;;;-3.77;100.00
32492;BME280;20605;49.742;18.802;2022-12-18T00:58:22;99262.72;;;-3.80;100.00
32492;BME280;20605;49.742;18.802;2022-12-18T01:00:48;99265.99;;;-3.82;100.00
32492;BME280;20605;49.742;18.802;2022-12-18T01:03:15;99268.61;;;-3.81;100.00
32492;BME280;20605;49.742;18.802;2022-12-18T01:05:43;99273.38;;;-3.79;100.00
32492;BME280;20605;49.742;18.802;2022-12-18T01:08:11;99278.14;;;-3.77;100.00
32492;BME280;20605;49.742;18.802;2022-12-18T01:10:40;99278.29;;;-3.74;100.00
32492;BME280;20605;49.742;18.802;2022-12-18T01:13:07;99281.78;;;-3.72;100.00
32492;BME280;20605;49.742;18.802;2022-12-18T01:15:34;99284.98;;;-3.76;100.00
32492;BME280;20605;49.742;18.802;2022-12-18T01:18:01;99282.51;;;-3.74;100.00
32492;BME280;20605;49.742;18.802;2022-12-18T01:20:31;99281.23;;;-3.74;100.00
32492;BME280;20605;49.742;18.802;2022-12-18T01:22:57;99280.77;;;-3.75;100.00
32492;BME280;20605;49.742;18.802;2022-12-18T01:25:26;99283.63;;;-3.77;100.00
32492;BME280;20605;49.742;18.802;2022-12-18T01:27:53;99278.77;;;-3.73;100.00
32492;BME280;20605;49.742;18.802;2022-12-18T01:30:19;99282.33;;;-3.69;100.00
32492;BME280;20605;49.742;18.802;2022-12-18T01:32:46;99283.34;;;-3.66;100.00
32492;BME280;20605;49.742;18.802;2022-12-18T01:35:13;99294.55;;;-3.62;100.00
32492;BME280;20605;49.742;18.802;2022-12-18T01:37:40;99298.88;;;-3.69;100.00
32492;BME280;20605;49.742;18.802;2022-12-18T01:40:07;99299.67;;;-3.70;100.00
32492;BME280;20605;49.742;18.802;2022-12-18T01:42:35;99293.78;;;-3.69;100.00
32492;BME280;20605;49.742;18.802;2022-12-18T01:48:00;99307.69;;;-3.63;100.00
32492;BME280;20605;49.742;18.802;2022-12-18T01:53:12;99304.37;;;-3.70;100.00
32492;BME280;20605;49.742;18.802;2022-12-18T01:55:45;99313.03;;;-3.66;100.00
32492;BME280;20605;49.742;18.802;2022-12-18T01:58:12;99310.23;;;-3.63;100.00
32492;BME280;20605;49.742;18.802;2022-12-18T02:00:40;99315.65;;;-3.65;100.00
32492;BME280;20605;49.742;18.802;2022-12-18T02:03:06;99313.91;;;-3.66;100.00
32492;BME280;20605;49.742;18.802;2022-12-18T02:06:09;99315.72;;;-3.63;100.00
32492;BME280;20605;49.742;18.802;2022-12-18T02:11:52;99326.31;;;-3.64;100.00
32492;BME280;20605;49.742;18.802;2022-12-18T02:14:49;99327.28;;;-3.70;100.00
32492;BME280;20605;49.742;18.802;2022-12-18T02:26:02;99347.80;;;-3.67;100.00
32492;BME280;20605;49.742;18.802;2022-12-18T02:28:40;99347.48;;;-3.65;100.00
32492;BME280;20605;49.742;18.802;2022-12-18T02:31:11;99353.34;;;-3.57;100.00
32492;BME280;20605;49.742;18.802;2022-12-18T02:33:42;99349.84;;;-3.59;100.00
32492;BME280;20605;49.742;18.802;2022-12-18T02:36:12;99355.19;;;-3.63;100.00
32492;BME280;20605;49.742;18.802;2022-12-18T02:38:50;99353.55;;;-3.71;100.00
32492;BME280;20605;49.742;18.802;2022-12-18T02:41:18;99347.58;;;-3.71;100.00
32492;BME280;20605;49.742;18.802;2022-12-18T02:43:52;99348.40;;;-3.80;100.00
32492;BME280;20605;49.742;18.802;2022-12-18T02:46:28;99349.12;;;-3.83;100.00
32492;BME280;20605;49.742;18.802;2022-12-18T02:51:59;99356.56;;;-3.70;100.00
32492;BME280;20605;49.742;18.802;2022-12-18T02:54:48;99353.55;;;-3.71;100.00
32492;BME280;20605;49.742;18.802;2022-12-18T02:57:19;99360.94;;;-3.67;100.00
32492;BME280;20605;49.742;18.802;2022-12-18T03:02:29;99363.70;;;-3.63;100.00
32492;BME280;20605;49.742;18.802;2022-12-18T03:07:55;99368.15;;;-3.58;100.00
32492;BME280;20605;49.742;18.802;2022-12-18T03:10:29;99375.14;;;-3.54;100.00
32492;BME280;20605;49.742;18.802;2022-12-18T03:13:10;99374.56;;;-3.49;100.00
32492;BME280;20605;49.742;18.802;2022-12-18T03:15:52;99374.39;;;-3.44;100.00
32492;BME280;20605;49.742;18.802;2022-12-18T03:18:35;99376.14;;;-3.43;100.00
32492;BME280;20605;49.742;18.802;2022-12-18T03:21:05;99380.20;;;-3.46;100.00
32492;BME280;20605;49.742;18.802;2022-12-18T03:23:42;99385.85;;;-3.44;100.00
32492;BME280;20605;49.742;18.802;2022-12-18T03:26:14;99384.10;;;-3.45;100.00
32492;BME280;20605;49.742;18.802;2022-12-18T03:28:50;99380.06;;;-3.49;100.00
32492;BME280;20605;49.742;18.802;2022-12-18T03:31:22;99384.13;;;-3.53;100.00
32492;BME280;20605;49.742;18.802;2022-12-18T03:33:58;99382.13;;;-3.50;100.00
32492;BME280;20605;49.742;18.802;2022-12-18T03:36:30;99387.84;;;-3.46;100.00
32492;BME280;20605;49.742;18.802;2022-12-18T03:38:58;99391.02;;;-3.42;100.00
32492;BME280;20605;49.742;18.802;2022-12-18T03:44:29;99392.77;;;-3.41;100.00
32492;BME280;20605;49.742;18.802;2022-12-18T03:52:46;99398.27;;;-3.42;100.00
32492;BME280;20605;49.742;18.802;2022-12-18T03:55:14;99399.06;;;-3.43;100.00
32492;BME280;20605;49.742;18.802;2022-12-18T03:57:44;99397.53;;;-3.39;100.00
32492;BME280;20605;49.742;18.802;2022-12-18T04:00:14;99400.16;;;-3.38;100.00
32492;BME280;20605;49.742;18.802;2022-12-18T04:02:52;99411.95;;;-3.40;100.00
32492;BME280;20605;49.742;18.802;2022-12-18T04:05:24;99412.44;;;-3.47;100.00
32492;BME280;20605;49.742;18.802;2022-12-18T04:07:53;99414.77;;;-3.51;100.00
32492;BME280;20605;49.742;18.802;2022-12-18T04:10:21;99424.00;;;-3.53;100.00
32492;BME280;20605;49.742;18.802;2022-12-18T04:12:48;99419.95;;;-3.58;100.00
32492;BME280;20605;49.742;18.802;2022-12-18T04:15:15;99426.27;;;-3.76;100.00
32492;BME280;20605;49.742;18.802;2022-12-18T04:17:49;99426.64;;;-3.94;100.00
32492;BME280;20605;49.742;18.802;2022-12-18T04:20:18;99436.23;;;-3.88;100.00
32492;BME280;20605;49.742;18.802;2022-12-18T04:22:45;99439.41;;;-3.84;100.00
32492;BME280;20605;49.742;18.802;2022-12-18T04:25:13;99433.44;;;-3.77;100.00
32492;BME280;20605;49.742;18.802;2022-12-18T04:27:41;99435.49;;;-3.70;100.00
32492;BME280;20605;49.742;18.802;2022-12-18T04:30:09;99439.70;;;-3.62;100.00
32492;BME280;20605;49.742;18.802;2022-12-18T04:32:36;99443.03;;;-3.55;100.00
32492;BME280;20605;49.742;18.802;2022-12-18T04:35:03;99446.69;;;-3.58;100.00
32492;BME280;20605;49.742;18.802;2022-12-18T04:37:33;99445.89;;;-3.57;100.00
32492;BME280;20605;49.742;18.802;2022-12-18T04:40:00;99449.80;;;-3.55;100.00
32492;BME280;20605;49.742;18.802;2022-12-18T04:42:28;99453.77;;;-3.52;100.00
32492;BME280;20605;49.742;18.802;2022-12-18T04:44:55;99459.02;;;-3.49;100.00
32492;BME280;20605;49.742;18.802;2022-12-18T04:47:21;99455.98;;;-3.50;100.00
32492;BME280;20605;49.742;18.802;2022-12-18T04:49:48;99460.84;;;-3.47;100.00
32492;BME280;20605;49.742;18.802;2022-12-18T04:52:15;99468.33;;;-3.50;100.00
32492;BME280;20605;49.742;18.802;2022-12-18T04:54:41;99469.05;;;-3.52;100.00
32492;BME280;20605;49.742;18.802;2022-12-18T04:57:08;99464.35;;;-3.53;100.00
32492;BME280;20605;49.742;18.802;2022-12-18T04:59:35;99478.84;;;-3.60;100.00
32492;BME280;20605;49.742;18.802;2022-12-18T05:02:02;99475.75;;;-3.63;100.00
32492;BME280;20605;49.742;18.802;2022-12-18T05:04:28;99482.43;;;-3.65;100.00
32492;BME280;20605;49.742;18.802;2022-12-18T05:06:55;99487.77;;;-3.60;100.00
32492;BME280;20605;49.742;18.802;2022-12-18T05:09:22;99487.20;;;-3.54;100.00
32492;BME280;20605;49.742;18.802;2022-12-18T05:11:52;99486.95;;;-3.51;100.00
32492;BME280;20605;49.742;18.802;2022-12-18T05:14:19;99487.03;;;-3.49;100.00
32492;BME280;20605;49.742;18.802;2022-12-18T05:16:46;99486.33;;;-3.63;100.00
32492;BME280;20605;49.742;18.802;2022-12-18T05:19:13;99483.39;;;-3.79;100.00
32492;BME280;20605;49.742;18.802;2022-12-18T05:21:39;99491.70;;;-3.91;100.00
32492;BME280;20605;49.742;18.802;2022-12-18T05:24:06;99497.59;;;-3.92;100.00
32492;BME280;20605;49.742;18.802;2022-12-18T05:26:33;99499.15;;;-3.86;100.00
32492;BME280;20605;49.742;18.802;2022-12-18T05:29:00;99498.20;;;-3.80;100.00
32492;BME280;20605;49.742;18.802;2022-12-18T05:31:27;99494.84;;;-3.71;100.00
32492;BME280;20605;49.742;18.802;2022-12-18T05:33:55;99498.82;;;-3.59;100.00
32492;BME280;20605;49.742;18.802;2022-12-18T05:36:22;99502.80;;;-3.65;100.00
32492;BME280;20605;49.742;18.802;2022-12-18T05:38:49;99504.87;;;-3.74;100.00
32492;BME280;20605;49.742;18.802;2022-12-18T05:41:15;99513.08;;;-4.12;100.00
32492;BME280;20605;49.742;18.802;2022-12-18T05:43:42;99512.12;;;-4.53;100.00
32492;BME280;20605;49.742;18.802;2022-12-18T05:46:13;99513.13;;;-4.80;100.00
32492;BME280;20605;49.742;18.802;2022-12-18T05:48:41;99515.72;;;-4.87;100.00
32492;BME280;20605;49.742;18.802;2022-12-18T05:51:10;99521.64;;;-4.95;100.00
32492;BME280;20605;49.742;18.802;2022-12-18T05:53:40;99518.67;;;-5.17;100.00
32492;BME280;20605;49.742;18.802;2022-12-18T05:56:13;99519.70;;;-5.36;100.00
32492;BME280;20605;49.742;18.802;2022-12-18T05:58:41;99521.86;;;-5.57;100.00
32492;BME280;20605;49.742;18.802;2022-12-18T06:01:11;99527.89;;;-5.76;100.00
32492;BME280;20605;49.742;18.802;2022-12-18T06:03:42;99533.20;;;-5.86;100.00
32492;BME280;20605;49.742;18.802;2022-12-18T06:06:18;99530.53;;;-5.96;100.00
32492;BME280;20605;49.742;18.802;2022-12-18T06:08:46;99529.36;;;-5.95;100.00
32492;BME280;20605;49.742;18.802;2022-12-18T06:11:19;99532.23;;;-5.88;100.00
32492;BME280;20605;49.742;18.802;2022-12-18T06:13:50;99531.91;;;-5.80;100.00
32492;BME280;20605;49.742;18.802;2022-12-18T06:16:17;99530.41;;;-5.70;100.00
32492;BME280;20605;49.742;18.802;2022-12-18T06:18:44;99535.78;;;-5.72;100.00
32492;BME280;20605;49.742;18.802;2022-12-18T06:21:11;99533.69;;;-5.85;100.00
32492;BME280;20605;49.742;18.802;2022-12-18T06:23:39;99543.74;;;-5.87;100.00
32492;BME280;20605;49.742;18.802;2022-12-18T06:26:11;99534.23;;;-5.91;100.00
32492;BME280;20605;49.742;18.802;2022-12-18T06:28:39;99536.30;;;-5.99;100.00
32492;BME280;20605;49.742;18.802;2022-12-18T06:31:06;99547.62;;;-6.00;100.00
32492;BME280;20605;49.742;18.802;2022-12-18T06:33:34;99545.96;;;-6.00;100.00
32492;BME280;20605;49.742;18.802;2022-12-18T06:36:06;99540.41;;;-6.01;100.00
32492;BME280;20605;49.742;18.802;2022-12-18T06:38:38;99545.98;;;-5.85;100.00
32492;BME280;20605;49.742;18.802;2022-12-18T06:41:13;99546.42;;;-5.71;100.00
32492;BME280;20605;49.742;18.802;2022-12-18T06:43:37;99543.40;;;-5.72;100.00
32492;BME280;20605;49.742;18.802;2022-12-18T06:46:05;99555.88;;;-5.68;100.00
32492;BME280;20605;49.742;18.802;2022-12-18T06:48:32;99557.91;;;-5.63;100.00
32492;BME280;20605;49.742;18.802;2022-12-18T06:50:59;99567.04;;;-5.51;100.00
32492;BME280;20605;49.742;18.802;2022-12-18T06:53:26;99565.16;;;-5.47;100.00
32492;BME280;20605;49.742;18.802;2022-12-18T06:56:01;99563.11;;;-5.46;100.00
32492;BME280;20605;49.742;18.802;2022-12-18T06:58:32;99567.37;;;-5.39;100.00
32492;BME280;20605;49.742;18.802;2022-12-18T07:01:07;99566.73;;;-5.49;100.00
32492;BME280;20605;49.742;18.802;2022-12-18T07:03:35;99568.27;;;-5.66;100.00
32492;BME280;20605;49.742;18.802;2022-12-18T07:06:03;99571.45;;;-5.83;100.00
32492;BME280;20605;49.742;18.802;2022-12-18T07:08:31;99583.31;;;-5.90;100.00
32492;BME280;20605;49.742;18.802;2022-12-18T07:10:58;99589.18;;;-5.98;100.00
32492;BME280;20605;49.742;18.802;2022-12-18T07:13:24;99599.05;;;-6.09;100.00
32492;BME280;20605;49.742;18.802;2022-12-18T07:15:52;99597.89;;;-6.14;100.00
32492;BME280;20605;49.742;18.802;2022-12-18T07:18:19;99600.59;;;-5.98;100.00
32492;BME280;20605;49.742;18.802;2022-12-18T07:20:46;99601.89;;;-5.83;100.00
32492;BME280;20605;49.742;18.802;2022-12-18T07:23:12;99607.73;;;-5.78;100.00
32492;BME280;20605;49.742;18.802;2022-12-18T07:25:39;99605.27;;;-5.91;100.00
32492;BME280;20605;49.742;18.802;2022-12-18T07:28:06;99606.34;;;-5.94;100.00
32492;BME280;20605;49.742;18.802;2022-12-18T07:30:33;99611.42;;;-5.94;100.00
32492;BME280;20605;49.742;18.802;2022-12-18T07:32:59;99617.38;;;-6.00;100.00
32492;BME280;20605;49.742;18.802;2022-12-18T07:35:26;99620.92;;;-5.83;100.00
32492;BME280;20605;49.742;18.802;2022-12-18T07:37:53;99623.83;;;-5.71;100.00
32492;BME280;20605;49.742;18.802;2022-12-18T07:40:19;99628.75;;;-5.52;100.00
32492;BME280;20605;49.742;18.802;2022-12-18T07:42:46;99630.63;;;-5.56;100.00
32492;BME280;20605;49.742;18.802;2022-12-18T07:45:13;99626.36;;;-5.71;100.00
32492;BME280;20605;49.742;18.802;2022-12-18T07:47:39;99635.70;;;-5.56;100.00
32492;BME280;20605;49.742;18.802;2022-12-18T07:50:07;99638.22;;;-5.50;100.00
32492;BME280;20605;49.742;18.802;2022-12-18T07:52:34;99629.40;;;-5.42;100.00
32492;BME280;20605;49.742;18.802;2022-12-18T07:55:02;99632.27;;;-5.50;100.00
32492;BME280;20605;49.742;18.802;2022-12-18T07:57:29;99640.29;;;-5.57;100.00
32492;BME280;20605;49.742;18.802;2022-12-18T07:59:56;99638.22;;;-5.50;100.00
32492;BME280;20605;49.742;18.802;2022-12-18T08:02:22;99635.70;;;-5.29;100.00
32492;BME280;20605;49.742;18.802;2022-12-18T08:04:49;99641.47;;;-5.16;100.00
32492;BME280;20605;49.742;18.802;2022-12-18T08:07:16;99637.49;;;-4.83;100.00
32492;BME280;20605;49.742;18.802;2022-12-18T08:09:42;99643.55;;;-4.52;100.00
32492;BME280;20605;49.742;18.802;2022-12-18T08:12:09;99639.20;;;-4.32;100.00
32492;BME280;20605;49.742;18.802;2022-12-18T08:14:36;99640.87;;;-4.09;100.00
32492;BME280;20605;49.742;18.802;2022-12-18T08:17:03;99642.96;;;-4.02;100.00
32492;BME280;20605;49.742;18.802;2022-12-18T08:19:30;99638.86;;;-3.76;100.00
32492;BME280;20605;49.742;18.802;2022-12-18T08:21:56;99637.70;;;-3.01;100.00
32492;BME280;20605;49.742;18.802;2022-12-18T08:24:23;99638.88;;;-2.35;100.00
32492;BME280;20605;49.742;18.802;2022-12-18T08:26:50;99647.16;;;-1.30;100.00
32492;BME280;20605;49.742;18.802;2022-12-18T08:29:16;99646.42;;;-0.38;100.00
32492;BME280;20605;49.742;18.802;2022-12-18T08:31:43;99653.95;;;0.68;100.00
32492;BME280;20605;49.742;18.802;2022-12-18T08:34:10;99646.64;;;1.51;100.00
32492;BME280;20605;49.742;18.802;2022-12-18T08:36:36;99642.40;;;1.91;100.00
32492;BME280;20605;49.742;18.802;2022-12-18T08:39:04;99640.48;;;2.54;100.00
32492;BME280;20605;49.742;18.802;2022-12-18T08:41:31;99645.76;;;2.74;100.00
32492;BME280;20605;49.742;18.802;2022-12-18T08:43:57;99644.36;;;2.85;100.00
32492;BME280;20605;49.742;18.802;2022-12-18T08:46:43;99658.24;;;3.53;100.00
32492;BME280;20605;49.742;18.802;2022-12-18T08:49:11;99653.11;;;3.22;95.32
32492;BME280;20605;49.742;18.802;2022-12-18T08:51:39;99653.94;;;2.45;97.93
32492;BME280;20605;49.742;18.802;2022-12-18T08:54:06;99656.23;;;2.36;98.73
32492;BME280;20605;49.742;18.802;2022-12-18T08:56:33;99661.31;;;2.20;95.80
32492;BME280;20605;49.742;18.802;2022-12-18T08:59:00;99660.30;;;1.50;96.42
32492;BME280;20605;49.742;18.802;2022-12-18T09:01:27;99668.63;;;1.69;97.28
32492;BME280;20605;49.742;18.802;2022-12-18T09:03:54;99659.82;;;1.11;94.07
32492;BME280;20605;49.742;18.802;2022-12-18T09:06:21;99671.38;;;0.54;93.10
32492;BME280;20605;49.742;18.802;2022-12-18T09:08:48;99675.05;;;0.49;96.82
32492;BME280;20605;49.742;18.802;2022-12-18T09:11:24;99653.66;;;0.71;96.18
32492;BME280;20605;49.742;18.802;2022-12-18T09:13:52;99653.66;;;0.71;96.18
32492;BME280;20605;49.742;18.802;2022-12-18T09:16:21;99670.09;;;0.76;95.03
32492;BME280;20605;49.742;18.802;2022-12-18T09:18:49;99678.57;;;0.97;96.09
32492;BME280;20605;49.742;18.802;2022-12-18T09:21:18;99669.03;;;0.82;94.80
32492;BME280;20605;49.742;18.802;2022-12-18T09:23:50;99669.03;;;0.82;94.80
32492;BME280;20605;49.742;18.802;2022-12-18T09:26:17;99678.83;;;0.81;94.23
32492;BME280;20605;49.742;18.802;2022-12-18T09:28:44;99678.83;;;0.81;94.23
32492;BME280;20605;49.742;18.802;2022-12-18T09:31:12;99684.53;;;0.85;93.29
32492;BME280;20605;49.742;18.802;2022-12-18T09:33:40;99677.31;;;0.75;94.13
32492;BME280;20605;49.742;18.802;2022-12-18T09:36:08;99675.66;;;1.00;94.17
32492;BME280;20605;49.742;18.802;2022-12-18T09:38:36;99670.77;;;1.44;94.30
32492;BME280;20605;49.742;18.802;2022-12-18T09:41:33;99671.89;;;2.58;95.36
32492;BME280;20605;49.742;18.802;2022-12-18T09:49:23;99657.23;;;4.75;88.64
32492;BME280;20605;49.742;18.802;2022-12-18T09:57:42;99665.65;;;4.10;87.26
32492;BME280;20605;49.742;18.802;2022-12-18T10:00:15;99675.74;;;3.18;83.36
32492;BME280;20605;49.742;18.802;2022-12-18T10:02:46;99678.59;;;1.72;83.06
32492;BME280;20605;49.742;18.802;2022-12-18T10:05:17;99682.45;;;0.53;84.51
32492;BME280;20605;49.742;18.802;2022-12-18T10:10:48;99677.62;;;-0.87;85.11
32492;BME280;20605;49.742;18.802;2022-12-18T10:19:01;99664.13;;;-2.83;87.84
32492;BME280;20605;49.742;18.802;2022-12-18T10:27:25;99661.66;;;-2.73;89.58
32492;BME280;20605;49.742;18.802;2022-12-18T10:29:53;99660.17;;;-3.02;90.17
32492;BME280;20605;49.742;18.802;2022-12-18T10:32:26;99652.77;;;-3.14;90.84
32492;BME280;20605;49.742;18.802;2022-12-18T10:34:56;99648.63;;;-3.12;90.84
32492;BME280;20605;49.742;18.802;2022-12-18T10:37:26;99635.96;;;-3.26;90.76
32492;BME280;20605;49.742;18.802;2022-12-18T10:40:13;99634.37;;;-3.33;91.79
32492;BME280;20605;49.742;18.802;2022-12-18T10:42:41;99635.72;;;-3.39;91.59
32492;BME280;20605;49.742;18.802;2022-12-18T10:45:15;99647.74;;;-3.37;92.74
32492;BME280;20605;49.742;18.802;2022-12-18T10:47:48;99654.12;;;-3.20;93.26
32492;BME280;20605;49.742;18.802;2022-12-18T10:50:22;99643.50;;;-2.87;93.95
32492;BME280;20605;49.742;18.802;2022-12-18T10:53:03;99638.70;;;-2.55;93.66
32492;BME280;20605;49.742;18.802;2022-12-18T10:55:33;99634.95;;;-2.28;93.49
32492;BME280;20605;49.742;18.802;2022-12-18T10:58:25;99624.55;;;-2.05;93.17
32492;BME280;20605;49.742;18.802;2022-12-18T11:01:05;99612.03;;;-1.91;92.66
32492;BME280;20605;49.742;18.802;2022-12-18T11:06:19;99620.70;;;-1.60;92.07
32492;BME280;20605;49.742;18.802;2022-12-18T11:09:03;99620.97;;;-1.54;92.05
32492;BME280;20605;49.742;18.802;2022-12-18T11:11:32;99616.17;;;-1.75;89.74
32492;BME280;20605;49.742;18.802;2022-12-18T11:16:48;99610.41;;;-2.34;90.72
32492;BME280;20605;49.742;18.802;2022-12-18T11:19:38;99609.05;;;-2.36;91.83
32492;BME280;20605;49.742;18.802;2022-12-18T11:24:57;99609.28;;;-2.13;92.06
32492;BME280;20605;49.742;18.802;2022-12-18T11:27:26;99614.23;;;-1.99;92.33
32492;BME280;20605;49.742;18.802;2022-12-18T11:30:09;99610.23;;;-1.84;92.52
32492;BME280;20605;49.742;18.802;2022-12-18T11:32:40;99600.65;;;-1.70;92.56
32492;BME280;20605;49.742;18.802;2022-12-18T11:35:19;99598.17;;;-1.59;92.58
32492;BME280;20605;49.742;18.802;2022-12-18T11:37:57;99596.44;;;-1.50;92.15
32492;BME280;20605;49.742;18.802;2022-12-18T11:40:37;99598.78;;;-1.55;92.14
32492;BME280;20605;49.742;18.802;2022-12-18T11:43:09;99600.53;;;-1.54;91.93
32492;BME280;20605;49.742;18.802;2022-12-18T11:45:54;99612.17;;;-1.51;92.05
32492;BME280;20605;49.742;18.802;2022-12-18T11:48:46;99612.44;;;-1.54;91.69
32492;BME280;20605;49.742;18.802;2022-12-18T11:51:27;99618.56;;;-1.51;92.16
32492;BME280;20605;49.742;18.802;2022-12-18T11:53:55;99624.81;;;-1.44;92.11
32492;BME280;20605;49.742;18.802;2022-12-18T11:56:35;99624.81;;;-1.44;91.94
32492;BME280;20605;49.742;18.802;2022-12-18T11:59:44;99619.03;;;-1.40;92.32
32492;BME280;20605;49.742;18.802;2022-12-18T12:02:38;99620.52;;;-1.36;92.54
32492;BME280;20605;49.742;18.802;2022-12-18T12:19:48;99649.30;;;-1.40;92.07
32492;BME280;20605;49.742;18.802;2022-12-18T12:40:30;99651.22;;;-1.63;92.51
32492;BME280;20605;49.742;18.802;2022-12-18T12:45:59;99659.75;;;-1.62;92.71
32492;BME280;20605;49.742;18.802;2022-12-18T12:48:37;99662.59;;;-1.56;92.98
32492;BME280;20605;49.742;18.802;2022-12-18T12:51:29;99659.56;;;-1.57;92.75
32492;BME280;20605;49.742;18.802;2022-12-18T12:54:08;99654.91;;;-1.66;92.51
32492;BME280;20605;49.742;18.802;2022-12-18T12:56:57;99660.68;;;-1.70;92.88
32492;BME280;20605;49.742;18.802;2022-12-18T13:02:22;99666.19;;;-1.71;93.04
32492;BME280;20605;49.742;18.802;2022-12-18T13:05:23;99671.70;;;-1.71;92.87
32492;BME280;20605;49.742;18.802;2022-12-18T13:08:06;99664.30;;;-1.75;93.15
32492;BME280;20605;49.742;18.802;2022-12-18T13:10:37;99663.02;;;-1.75;93.25
32492;BME280;20605;49.742;18.802;2022-12-18T13:13:08;99664.44;;;-1.72;93.14
32492;BME280;20605;49.742;18.802;2022-12-18T13:15:49;99663.28;;;-1.78;93.25
32492;BME280;20605;49.742;18.802;2022-12-18T13:18:32;99663.86;;;-1.84;93.48
32492;BME280;20605;49.742;18.802;2022-12-18T13:24:23;99675.03;;;-1.82;93.67
32492;BME280;20605;49.742;18.802;2022-12-18T13:26:44;99675.43;;;-1.82;93.69
32492;BME280;20605;49.742;18.802;2022-12-18T13:29:11;99680.06;;;-1.83;93.65
32492;BME280;20605;49.742;18.802;2022-12-18T13:34:20;99675.88;;;-1.91;93.68
32492;BME280;20605;49.742;18.802;2022-12-18T13:36:50;99676.64;;;-2.02;93.83
32492;BME280;20605;49.742;18.802;2022-12-18T13:44:39;99673.37;;;-2.25;94.10
32492;BME280;20605;49.742;18.802;2022-12-18T13:52:46;99668.74;;;-2.50;94.50
32492;BME280;20605;49.742;18.802;2022-12-18T13:55:18;99673.94;;;-2.56;94.64
32492;BME280;20605;49.742;18.802;2022-12-18T13:57:45;99672.31;;;-2.64;94.77
32492;BME280;20605;49.742;18.802;2022-12-18T14:00:29;99668.83;;;-2.74;94.67
32492;BME280;20605;49.742;18.802;2022-12-18T14:02:57;99673.94;;;-2.82;94.93
32492;BME280;20605;49.742;18.802;2022-12-18T14:05:32;99674.27;;;-2.92;95.00
32492;BME280;20605;49.742;18.802;2022-12-18T14:08:08;99682.39;;;-3.00;95.25
32492;BME280;20605;49.742;18.802;2022-12-18T14:10:32;99681.84;;;-3.10;95.37
32492;BME280;20605;49.742;18.802;2022-12-18T14:13:05;99683.03;;;-3.20;95.44
32492;BME280;20605;49.742;18.802;2022-12-18T14:15:35;99676.25;;;-3.36;95.59
32492;BME280;20605;49.742;18.802;2022-12-18T14:21:31;99675.98;;;-3.56;96.00
32492;BME280;20605;49.742;18.802;2022-12-18T14:24:16;99684.85;;;-3.73;95.99
32492;BME280;20605;49.742;18.802;2022-12-18T14:26:44;99693.97;;;-3.84;96.26
32492;BME280;20605;49.742;18.802;2022-12-18T14:29:24;99691.88;;;-4.00;96.40
32492;BME280;20605;49.742;18.802;2022-12-18T14:32:14;99694.13;;;-4.12;96.62
32492;BME280;20605;49.742;18.802;2022-12-18T14:34:41;99694.14;;;-4.27;96.61
32492;BME280;20605;49.742;18.802;2022-12-18T14:37:10;99694.54;;;-4.42;96.92
32492;BME280;20605;49.742;18.802;2022-12-18T14:39:37;99700.28;;;-4.53;96.96
32492;BME280;20605;49.742;18.802;2022-12-18T14:42:04;99690.13;;;-4.74;97.02
32492;BME280;20605;49.742;18.802;2022-12-18T14:44:31;99690.14;;;-4.96;97.31
32492;BME280;20605;49.742;18.802;2022-12-18T14:46:59;99693.78;;;-5.20;97.35
32492;BME280;20605;49.742;18.802;2022-12-18T14:49:33;99687.98;;;-5.39;97.99
32492;BME280;20605;49.742;18.802;2022-12-18T14:52:15;99696.98;;;-5.44;98.18
32492;BME280;20605;49.742;18.802;2022-12-18T14:54:45;99696.72;;;-5.55;98.44
32492;BME280;20605;49.742;18.802;2022-12-18T14:57:21;99696.05;;;-5.66;98.45
32492;BME280;20605;49.742;18.802;2022-12-18T14:59:51;99698.60;;;-5.72;98.46
32492;BME280;20605;49.742;18.802;2022-12-18T15:02:23;99697.83;;;-5.78;98.49
32492;BME280;20605;49.742;18.802;2022-12-18T15:05:14;99698.27;;;-5.92;98.24
32492;BME280;20605;49.742;18.802;2022-12-18T15:07:46;99702.55;;;-6.04;98.21
32492;BME280;20605;49.742;18.802;2022-12-18T15:10:17;99706.95;;;-6.14;98.43
32492;BME280;20605;49.742;18.802;2022-12-18T15:13:06;99704.48;;;-6.33;98.67